Time;durP1;ratioP1;P1;durP2;ratioP2;P2;SDS_P1;SDS_P2;PMS_P1;PMS_P2;Temp;Humidity;BMP_temperature;BMP_pressure;BME280_temperature;BME280_humidity;BME280_pressure;Samples;Min_cycle;Max_cycle;Signal;HPM_P1;HPM_P2
2022/03/23 00:01:46;;;;;;;10.55;7.07;;;;;;;7.27;38.81;97863.34;4826078;29;20066;-80
2022/03/23 00:04:14;;;;;;;9.75;7.05;;;;;;;7.21;38.27;97855.16;4826328;29;20046;-80
2022/03/23 00:06:41;;;;;;;11.13;6.82;;;;;;;7.10;38.78;97867.34;4825860;29;20054;-80
2022/03/23 00:09:09;;;;;;;11.07;7.45;;;;;;;6.96;38.70;97865.94;4829398;29;20051;-81
2022/03/23 00:11:37;;;;;;;7.45;6.47;;;;;;;6.83;39.07;97865.31;4828901;29;20054;-80
2022/03/23 00:14:06;;;;;;;11.32;7.28;;;;;;;6.71;39.46;97860.19;4827056;29;20057;-80
2022/03/23 00:16:36;;;;;;;13.25;7.47;;;;;;;6.65;39.41;97871.06;4825820;29;20054;-80
2022/03/23 00:19:04;;;;;;;11.50;7.15;;;;;;;6.54;39.47;97861.56;4827466;29;20055;-80
2022/03/23 00:21:32;;;;;;;9.18;6.13;;;;;;;6.44;40.04;97859.84;4826744;29;20065;-80
2022/03/23 00:23:59;;;;;;;9.45;6.47;;;;;;;6.34;39.95;97859.75;4826300;29;20058;-81
2022/03/23 00:26:27;;;;;;;11.20;6.38;;;;;;;6.29;39.89;97859.31;4826679;29;20057;-80
2022/03/23 00:28:54;;;;;;;9.73;7.18;;;;;;;6.28;39.88;97862.84;4826512;29;20051;-80
2022/03/23 00:31:24;;;;;;;10.20;7.05;;;;;;;6.28;40.10;97862.84;4826822;29;20057;-80
2022/03/23 00:33:54;;;;;;;10.00;6.70;;;;;;;6.27;40.24;97858.59;4826355;29;20102;-80
2022/03/23 00:36:22;;;;;;;10.98;7.53;;;;;;;6.36;41.60;97855.25;4825986;29;20103;-80
2022/03/23 00:38:50;;;;;;;10.82;7.75;;;;;;;6.46;40.51;97853.56;4826208;29;20050;-80
2022/03/23 00:41:18;;;;;;;10.65;8.48;;;;;;;6.43;40.68;97861.63;4826044;29;20050;-81
2022/03/23 00:43:45;;;;;;;12.73;7.80;;;;;;;6.36;40.90;97856.09;4840697;29;20041;-80
2022/03/23 00:46:14;;;;;;;12.07;7.57;;;;;;;6.36;40.84;97858.69;4846894;29;20113;-81
2022/03/23 00:48:43;;;;;;;9.55;8.23;;;;;;;6.35;41.40;97856.22;4847171;29;20050;-80
2022/03/23 00:51:11;;;;;;;11.82;7.97;;;;;;;6.27;41.20;97854.22;4826753;29;20062;-80
2022/03/23 00:53:39;;;;;;;11.50;8.27;;;;;;;6.19;41.44;97852.28;4826085;29;20055;-80
2022/03/23 00:56:06;;;;;;;12.55;8.68;;;;;;;6.30;43.34;97853.19;4825181;29;20066;-80
2022/03/23 00:58:34;;;;;;;14.13;10.35;;;;;;;6.49;43.55;97849.91;4825427;29;20050;-80
2022/03/23 01:01:02;;;;;;;14.05;10.32;;;;;;;6.60;43.47;97834.28;4825258;29;20057;-80
2022/03/23 01:03:30;;;;;;;14.85;10.90;;;;;;;6.59;42.66;97832.66;4825396;29;20097;-80
2022/03/23 01:05:59;;;;;;;12.70;10.07;;;;;;;6.58;42.88;97842.22;4824805;29;20427;-80
2022/03/23 01:08:26;;;;;;;13.70;10.93;;;;;;;6.58;43.11;97841.38;4824791;29;20069;-80
2022/03/23 01:10:54;;;;;;;13.98;10.02;;;;;;;6.56;43.38;97836.34;4825032;29;20057;-81
2022/03/23 01:13:22;;;;;;;12.50;10.02;;;;;;;6.52;42.80;97836.72;4825390;29;20058;-80
2022/03/23 01:15:50;;;;;;;13.52;9.18;;;;;;;6.53;44.00;97833.97;4824600;29;20054;-80
2022/03/23 01:18:17;;;;;;;14.23;10.50;;;;;;;6.63;43.42;97834.06;4824759;29;20064;-80
2022/03/23 01:20:45;;;;;;;14.38;10.10;;;;;;;6.69;43.50;97830.13;4828198;29;20050;-80
2022/03/23 01:23:14;;;;;;;15.13;9.90;;;;;;;6.73;43.73;97834.09;4824439;29;20422;-80
2022/03/23 01:25:41;;;;;;;13.57;10.27;;;;;;;6.69;42.51;97830.13;4824976;29;20054;-80
2022/03/23 01:28:09;;;;;;;13.55;9.50;;;;;;;6.53;42.11;97822.78;4824479;29;20055;-80
2022/03/23 01:30:37;;;;;;;11.60;8.70;;;;;;;6.41;42.93;97824.63;4825048;29;20063;-80
2022/03/23 01:33:05;;;;;;;12.52;9.38;;;;;;;6.41;45.31;97822.03;4824592;29;20050;-80
2022/03/23 01:35:32;;;;;;;14.70;9.55;;;;;;;6.50;44.79;97817.88;4830384;29;20042;-80
2022/03/23 01:38:00;;;;;;;13.52;9.00;;;;;;;6.53;43.48;97817.59;4845302;29;20065;-80
2022/03/23 01:40:29;;;;;;;14.57;9.75;;;;;;;6.51;43.74;97815.13;4846124;29;20038;-80
2022/03/23 01:42:56;;;;;;;16.50;10.18;;;;;;;6.49;43.50;97817.03;4845396;29;20057;-80
2022/03/23 01:45:24;;;;;;;16.92;10.23;;;;;;;6.41;43.34;97819.44;4840719;29;20051;-79
2022/03/23 01:47:51;;;;;;;15.50;11.00;;;;;;;6.29;43.07;97817.84;4844131;29;20046;-80
2022/03/23 01:50:19;;;;;;;16.50;10.00;;;;;;;6.22;43.53;97827.06;4840905;29;20057;-80
2022/03/23 01:52:47;;;;;;;14.93;10.75;;;;;;;6.30;44.45;97827.28;4825776;29;20054;-80
2022/03/23 01:55:17;;;;;;;16.63;10.82;;;;;;;6.32;43.55;97822.75;4827466;29;20058;-80
2022/03/23 01:57:48;;;;;;;14.05;10.23;;;;;;;6.20;43.25;97822.00;4827338;29;20058;-80
2022/03/23 02:00:16;;;;;;;17.63;9.57;;;;;;;6.04;43.50;97827.59;4828169;29;20051;-80
2022/03/23 02:02:45;;;;;;;15.70;9.75;;;;;;;5.91;44.44;97826.91;4828227;29;20509;-80
2022/03/23 02:05:13;;;;;;;16.58;10.18;;;;;;;5.88;45.02;97833.16;4828049;29;20061;-80
2022/03/23 02:07:41;;;;;;;14.93;9.80;;;;;;;5.97;45.34;97826.47;4826595;29;20054;-81
2022/03/23 02:10:09;;;;;;;11.27;9.45;;;;;;;6.10;45.48;97831.44;4827229;29;20433;-80
2022/03/23 02:12:38;;;;;;;12.45;9.80;;;;;;;6.19;45.20;97831.56;4827515;29;20050;-80
2022/03/23 02:15:16;;;;;;;12.45;8.85;;;;;;;6.26;46.38;97831.06;4826951;29;20065;-80
2022/03/23 02:17:44;;;;;;;15.07;9.00;;;;;;;6.33;45.06;97827.84;4826121;29;20498;-80
2022/03/23 02:20:12;;;;;;;12.88;9.38;;;;;;;6.38;44.98;97830.03;4827380;29;20058;-80
2022/03/23 02:22:41;;;;;;;15.88;10.55;;;;;;;6.31;44.19;97831.50;4826883;29;20063;-80
2022/03/23 02:25:10;;;;;;;14.95;10.18;;;;;;;6.24;44.16;97833.75;4827141;29;20047;-80
2022/03/23 02:27:40;;;;;;;14.00;10.43;;;;;;;6.15;43.92;97834.50;4826080;29;20088;-80
2022/03/23 02:30:09;;;;;;;14.82;10.90;;;;;;;6.14;45.63;97828.53;4826737;29;20058;-80
2022/03/23 02:32:37;;;;;;;15.35;10.65;;;;;;;6.15;44.67;97824.97;4826960;29;20077;-80
2022/03/23 02:35:07;;;;;;;13.68;10.50;;;;;;;6.11;44.13;97825.34;4826878;29;20069;-80
2022/03/23 02:37:35;;;;;;;14.52;10.50;;;;;;;6.00;44.44;97821.03;4826318;29;20062;-80
2022/03/23 02:40:04;;;;;;;13.55;9.98;;;;;;;5.91;44.57;97816.56;4827291;29;20053;-80
2022/03/23 02:42:32;;;;;;;12.75;10.48;;;;;;;5.93;45.62;97822.44;4826976;29;20081;-80
2022/03/23 02:45:00;;;;;;;16.05;10.98;;;;;;;5.99;45.43;97829.72;4826628;29;20058;-80
2022/03/23 02:47:27;;;;;;;14.40;10.95;;;;;;;6.07;45.46;97829.94;4825874;29;20058;-80
2022/03/23 02:49:55;;;;;;;16.05;11.75;;;;;;;6.15;44.97;97827.56;4826476;29;20057;-80
2022/03/23 02:52:22;;;;;;;16.25;11.60;;;;;;;6.16;44.68;97824.00;4826828;29;20065;-80
2022/03/23 03:03:52;;;;;;;15.45;11.20;;;;;;;5.83;44.36;97822.31;4827061;29;20064;-80
2022/03/23 03:06:20;;;;;;;14.40;10.63;;;;;;;5.70;44.61;97824.25;4825465;29;20058;-80
2022/03/23 03:08:47;;;;;;;14.50;10.82;;;;;;;5.69;45.61;97825.19;4826733;29;20058;-80
2022/03/23 03:11:16;;;;;;;13.40;11.00;;;;;;;5.67;44.70;97825.31;4826888;29;20551;-80
2022/03/23 03:13:48;;;;;;;18.15;11.13;;;;;;;5.66;46.11;97822.84;4826751;29;20057;-80
2022/03/23 03:16:17;;;;;;;15.02;10.55;;;;;;;5.64;45.51;97827.31;4827603;29;20421;-80
2022/03/23 03:18:46;;;;;;;13.35;9.73;;;;;;;5.69;46.16;97827.78;4828456;29;20058;-80
2022/03/23 03:21:14;;;;;;;12.93;9.93;;;;;;;5.74;45.61;97823.88;4827919;29;20065;-80
2022/03/23 03:23:43;;;;;;;12.57;10.88;;;;;;;5.75;46.23;97833.31;4827025;29;20062;-80
2022/03/23 03:26:12;;;;;;;12.88;9.05;;;;;;;5.76;45.35;97826.34;4825823;29;20470;-80
2022/03/23 03:28:41;;;;;;;12.82;8.68;;;;;;;5.75;45.02;97827.28;4826543;29;20054;-80
2022/03/23 03:31:12;;;;;;;13.77;9.10;;;;;;;5.84;46.08;97830.91;4826719;29;20051;-80
2022/03/23 03:33:40;;;;;;;13.93;9.75;;;;;;;5.93;46.42;97825.03;4826483;29;20054;-80
2022/03/23 03:36:09;;;;;;;15.48;10.85;;;;;;;5.92;45.06;97834.53;4825877;29;20417;-80
2022/03/23 03:38:37;;;;;;;15.55;11.02;;;;;;;5.89;45.07;97826.22;4826265;29;20069;-80
2022/03/23 03:41:05;;;;;;;16.83;11.02;;;;;;;5.88;46.81;97834.91;4826782;29;20058;-80
2022/03/23 03:43:34;;;;;;;14.57;10.45;;;;;;;5.88;45.59;97827.13;4826376;29;20058;-82
2022/03/23 03:46:02;;;;;;;13.48;10.77;;;;;;;5.87;45.89;97835.88;4825011;29;20054;-80
2022/03/23 03:48:31;;;;;;;15.52;10.18;;;;;;;5.82;45.03;97840.59;4826333;29;20047;-80
2022/03/23 03:50:59;;;;;;;14.95;11.23;;;;;;;5.72;44.86;97843.88;4826109;29;20545;-80
2022/03/23 03:53:26;;;;;;;15.50;10.13;;;;;;;5.61;44.84;97843.91;4825651;29;20050;-80
2022/03/23 03:56:05;;;;;;;15.32;10.43;;;;;;;5.52;44.91;97844.63;4824734;29;20820;-80
2022/03/23 03:58:33;;;;;;;11.93;9.82;;;;;;;5.50;47.51;97849.09;4825437;29;20062;-80
2022/03/23 04:01:00;;;;;;;14.55;10.57;;;;;;;5.63;47.12;97854.97;4825656;29;20051;-80
2022/03/23 04:03:28;;;;;;;14.55;10.20;;;;;;;5.75;46.41;97848.00;4826070;29;20050;-80
2022/03/23 04:05:57;;;;;;;15.18;10.82;;;;;;;5.74;45.65;97844.59;4825045;29;20056;-80
2022/03/23 04:08:25;;;;;;;15.40;10.23;;;;;;;5.65;45.03;97853.09;4826230;29;20050;-80
2022/03/23 04:10:53;;;;;;;16.38;10.25;;;;;;;5.58;46.58;97852.75;4825614;29;20463;-80
2022/03/23 04:13:21;;;;;;;16.80;10.10;;;;;;;5.65;47.45;97847.91;4826098;29;20055;-80
2022/03/23 04:15:48;;;;;;;14.27;10.27;;;;;;;5.73;46.31;97853.31;4825396;29;20054;-80
2022/03/23 04:18:16;;;;;;;14.40;10.10;;;;;;;5.75;45.90;97858.34;4825632;29;20475;-80
2022/03/23 04:20:44;;;;;;;13.93;9.15;;;;;;;5.75;46.38;97854.03;4825298;29;20050;-80
2022/03/23 04:23:13;;;;;;;17.25;10.07;;;;;;;5.81;46.57;97857.06;4826169;29;20046;-80
2022/03/23 04:25:40;;;;;;;15.35;10.55;;;;;;;5.81;46.35;97857.06;4825470;29;20145;-80
2022/03/23 04:28:08;;;;;;;15.15;10.13;;;;;;;5.73;45.75;97860.25;4825215;29;20065;-80
2022/03/23 04:30:35;;;;;;;18.48;11.30;;;;;;;5.64;45.43;97856.63;4826020;29;20061;-80
2022/03/23 04:33:03;;;;;;;14.27;10.02;;;;;;;5.54;45.89;97856.50;4826052;29;20054;-80
2022/03/23 04:35:30;;;;;;;13.75;9.63;;;;;;;5.51;45.44;97859.34;4825632;29;20054;-80
2022/03/23 04:37:58;;;;;;;10.43;8.40;;;;;;;5.47;45.57;97859.69;4825119;29;20050;-80
2022/03/23 04:40:27;;;;;;;12.48;8.73;;;;;;;5.44;46.09;97862.50;4826322;29;20058;-80
2022/03/23 04:42:54;;;;;;;11.23;8.65;;;;;;;5.36;45.39;97853.56;4825880;29;20058;-80
2022/03/23 04:45:22;;;;;;;11.60;8.77;;;;;;;5.28;45.92;97858.50;4827800;29;20070;-80
2022/03/23 04:47:49;;;;;;;13.32;9.48;;;;;;;5.24;45.57;97864.84;4828676;29;20085;-80
2022/03/23 04:50:20;;;;;;;11.95;9.55;;;;;;;5.20;45.90;97858.25;4844824;29;20068;-80
2022/03/23 04:52:52;;;;;;;13.95;8.68;;;;;;;5.18;46.92;97862.72;4837949;29;20060;-80
2022/03/23 04:55:19;;;;;;;10.20;8.25;;;;;;;5.23;46.43;97858.06;4836555;29;20057;-80
2022/03/23 04:57:53;;;;;;;13.73;9.70;;;;;;;5.27;46.98;97859.47;4839960;24;20054;-91
2022/03/23 05:00:41;;;;;;;12.70;8.65;;;;;;;5.38;47.51;97861.22;4828722;29;20065;-90
2022/03/23 05:03:15;;;;;;;15.30;10.57;;;;;;;5.43;46.14;97866.06;4828722;29;20130;-92
2022/03/23 05:06:02;;;;;;;17.30;10.77;;;;;;;5.34;45.73;97865.81;4828659;29;20058;-89
2022/03/23 05:08:43;;;;;;;17.05;10.75;;;;;;;5.27;46.69;97863.78;4828328;29;20145;-92
2022/03/23 05:16:50;;;;;;;14.95;9.85;;;;;;;4.94;46.02;97868.00;4824831;29;20047;-88
2022/03/23 05:19:31;;;;;;;17.17;11.07;;;;;;;4.86;45.94;97871.16;4827209;29;20066;-92
2022/03/23 05:22:10;;;;;;;17.08;11.48;;;;;;;4.80;46.94;97870.81;4826934;29;20058;-88
2022/03/23 05:24:47;;;;;;;14.77;10.50;;;;;;;4.82;47.54;97876.69;4826946;29;20066;-86
2022/03/23 05:27:20;;;;;;;18.63;10.73;;;;;;;4.88;46.97;97877.06;4852308;24;20049;-92
2022/03/23 05:30:15;;;;;;;15.32;9.68;;;;;;;4.86;46.86;97884.09;4848677;29;20588;-91
2022/03/23 05:33:03;;;;;;;14.75;10.70;;;;;;;4.86;47.47;97878.94;4848997;29;20083;-91
2022/03/23 05:35:50;;;;;;;17.30;10.95;;;;;;;4.87;46.73;97887.50;4848268;29;20509;-87
2022/03/23 05:41:25;;;;;;;14.48;9.90;;;;;;;4.74;47.70;97885.84;4828973;29;20050;-91
2022/03/23 05:43:58;;;;;;;18.00;10.48;;;;;;;4.77;47.89;97886.53;4831713;29;20088;-91
2022/03/23 05:46:49;;;;;;;17.65;11.05;;;;;;;4.78;47.49;97894.16;4874027;24;20061;-91
2022/03/23 05:52:16;;;;;;;26.02;16.75;;;;;;;4.97;48.20;97885.88;4847763;29;20488;-91
2022/03/23 05:54:52;;;;;;;21.20;12.65;;;;;;;5.05;47.56;97891.31;4849732;29;20062;-91
2022/03/23 05:57:33;;;;;;;22.08;11.20;;;;;;;5.10;49.27;97893.53;4848541;29;20516;-90
2022/03/23 06:00:32;;;;;;;17.40;10.75;;;;;;;5.18;47.77;97898.94;4847000;29;20526;-92
2022/03/23 06:03:27;;;;;;;17.30;11.77;;;;;;;5.14;47.17;97905.31;4849252;29;20467;-88
2022/03/23 06:06:15;;;;;;;15.90;10.07;;;;;;;5.14;49.67;97907.91;4849501;29;20069;-90
2022/03/23 06:11:43;;;;;;;26.88;12.20;;;;;;;5.18;46.96;97901.53;4847072;29;20054;-90
2022/03/23 06:14:15;;;;;;;20.13;11.77;;;;;;;5.09;46.75;97903.03;4849380;29;20046;-91
2022/03/23 06:16:47;;;;;;;15.77;11.35;;;;;;;5.06;47.53;97902.47;4854199;24;20053;-91
2022/03/23 06:19:29;;;;;;;20.77;11.48;;;;;;;5.05;47.82;97909.41;4848437;29;20060;-87
2022/03/23 06:22:10;;;;;;;;;;;;;;;5.06;46.88;97908.47;4849424;29;20578;-91
2022/03/23 06:24:50;;;;;;;21.02;11.25;;;;;;;5.05;47.72;97911.16;4848144;29;19932;-90
2022/03/23 06:30:11;;;;;;;21.02;13.02;;;;;;;5.27;47.11;97915.53;4843997;29;20150;-83
2022/03/23 06:32:43;;;;;;;23.00;14.52;;;;;;;5.36;47.70;97910.50;4852812;29;20056;-89
2022/03/23 06:35:22;;;;;;;25.52;16.63;;;;;;;5.50;47.56;97912.03;4853381;29;20532;-84
2022/03/23 06:38:04;;;;;;;25.83;15.65;;;;;;;5.65;48.97;97914.41;4851459;29;20057;-91
2022/03/23 06:40:56;;;;;;;30.33;18.23;;;;;;;5.75;47.05;97910.97;4847560;29;20068;-82
2022/03/23 06:43:29;;;;;;;27.67;16.90;;;;;;;5.84;48.03;97919.78;4852611;29;20050;-84
2022/03/23 06:46:03;;;;;;;32.58;20.63;;;;;;;5.95;47.66;97921.59;4851912;29;20086;-90
2022/03/23 06:48:41;;;;;;;35.28;19.83;;;;;;;6.07;47.66;97925.78;4852249;29;20077;-89
2022/03/23 06:51:18;;;;;;;35.75;20.60;;;;;;;6.18;47.97;97920.56;4852017;29;20117;-85
2022/03/23 06:53:51;;;;;;;37.35;20.55;;;;;;;6.31;47.28;97914.44;4852252;29;20057;-84
2022/03/23 06:56:23;;;;;;;34.25;21.42;;;;;;;6.48;48.64;97920.84;4850738;29;20506;-87
2022/03/23 06:59:16;;;;;;;34.08;20.25;;;;;;;6.67;48.37;97927.94;4851880;29;20496;-89
2022/03/23 07:01:56;;;;;;;35.30;21.50;;;;;;;6.85;47.73;97920.47;4850994;29;20054;-82
2022/03/23 07:04:32;;;;;;;32.55;21.05;;;;;;;7.05;47.27;97929.19;4849702;29;20425;-85
2022/03/23 07:07:19;;;;;;;31.38;20.65;;;;;;;7.23;46.57;97931.06;4854784;24;20050;-80
2022/03/23 07:09:54;;;;;;;31.33;20.23;;;;;;;7.46;46.87;97937.91;4849768;29;20057;-84
2022/03/23 07:12:33;;;;;;;26.45;18.35;;;;;;;7.64;45.80;97933.75;4848920;29;20080;-85
2022/03/23 07:15:07;;;;;;;26.90;18.50;;;;;;;7.85;45.87;97941.50;4847383;29;20053;-88
2022/03/23 07:17:45;;;;;;;35.28;19.25;;;;;;;8.04;46.91;97945.91;4846733;29;20056;-84
2022/03/23 07:20:21;;;;;;;31.60;19.73;;;;;;;8.23;46.02;97945.16;4847715;29;20498;-89
2022/03/23 07:22:51;;;;;;;35.53;18.33;;;;;;;8.41;45.20;97943.56;4881314;24;20133;-80
2022/03/23 07:25:18;;;;;;;26.13;17.08;;;;;;;8.57;43.37;97940.44;4865679;29;20081;-80
2022/03/23 07:27:46;;;;;;;26.17;17.08;;;;;;;8.74;43.96;97941.53;4864864;29;20065;-80
2022/03/23 07:30:14;;;;;;;25.35;16.65;;;;;;;8.91;44.38;97945.22;4864804;29;20057;-80
2022/03/23 07:32:42;;;;;;;22.10;16.40;;;;;;;9.11;46.40;97943.41;4864017;29;20073;-80
2022/03/23 07:35:10;;;;;;;27.75;17.83;;;;;;;9.34;46.25;97950.94;4865158;29;20436;-80
2022/03/23 07:37:37;;;;;;;24.52;17.73;;;;;;;9.52;46.26;97948.41;4865766;29;20041;-80
2022/03/23 07:40:07;;;;;;;36.55;19.35;;;;;;;9.71;45.85;97948.34;4865386;29;20046;-80
2022/03/23 07:42:35;;;;;;;30.90;19.55;;;;;;;9.92;44.77;97955.13;4865280;29;20094;-80
2022/03/23 07:45:03;;;;;;;34.50;21.48;;;;;;;10.09;44.87;97954.34;4864960;29;20117;-79
2022/03/23 07:47:30;;;;;;;26.63;18.63;;;;;;;10.28;44.51;97958.66;4864786;29;20050;-79
2022/03/23 07:49:58;;;;;;;33.65;20.70;;;;;;;10.46;44.44;97956.91;4865298;29;20049;-79
2022/03/23 07:52:26;;;;;;;44.20;21.58;;;;;;;10.66;43.97;97957.59;4865331;29;20078;-80
2022/03/23 07:54:53;;;;;;;34.97;21.10;;;;;;;10.88;41.83;97960.72;4865762;29;20046;-80
2022/03/23 07:57:22;;;;;;;32.47;21.40;;;;;;;11.10;43.57;97957.63;4865004;29;20057;-80
2022/03/23 07:59:50;;;;;;;36.10;21.02;;;;;;;11.35;42.54;97955.22;4865974;29;20057;-80
2022/03/23 08:02:17;;;;;;;34.63;21.23;;;;;;;11.58;41.00;97957.31;4865900;29;20044;-80
2022/03/23 08:04:45;;;;;;;31.63;19.98;;;;;;;11.80;38.89;97948.09;4865577;29;20044;-79
2022/03/23 08:07:13;;;;;;;36.40;19.35;;;;;;;12.04;38.34;97955.28;4865116;29;20595;-79
2022/03/23 08:09:40;;;;;;;28.00;18.17;;;;;;;12.31;35.98;97954.19;4866032;29;20525;-79
2022/03/23 08:12:09;;;;;;;25.65;17.67;;;;;;;12.58;35.06;97955.75;4865914;29;20038;-80
2022/03/23 08:14:38;;;;;;;23.17;16.88;;;;;;;12.86;34.77;97963.34;4866403;29;20040;-80
2022/03/23 08:17:05;;;;;;;22.30;15.93;;;;;;;13.16;34.38;97949.56;4865049;29;20104;-79
2022/03/23 08:19:34;;;;;;;28.45;16.35;;;;;;;13.47;32.82;97954.16;4865876;29;20058;-79
2022/03/23 08:22:01;;;;;;;22.50;14.55;;;;;;;13.76;32.49;97958.84;4865768;29;20042;-79
2022/03/23 08:24:29;;;;;;;17.15;13.57;;;;;;;14.08;32.40;97957.09;4865951;29;20109;-79
2022/03/23 08:26:58;;;;;;;18.75;12.90;;;;;;;14.41;31.17;97951.69;4865127;29;20036;-80
2022/03/23 08:29:26;;;;;;;15.07;11.30;;;;;;;14.75;33.20;97951.31;4865696;29;20057;-79
2022/03/23 08:31:55;;;;;;;19.73;12.02;;;;;;;15.08;30.26;97958.13;4865427;29;20053;-80
2022/03/23 08:34:22;;;;;;;22.80;12.90;;;;;;;15.36;33.90;97955.75;4865699;29;20033;-79
2022/03/23 08:36:52;;;;;;;16.65;12.13;;;;;;;15.62;34.41;97950.09;4865126;29;20034;-79
2022/03/23 08:39:19;;;;;;;19.20;12.48;;;;;;;15.88;30.15;97948.84;4866460;29;20062;-79
2022/03/23 08:41:47;;;;;;;15.73;11.73;;;;;;;16.14;28.96;97948.38;4866533;29;20033;-79
2022/03/23 08:44:14;;;;;;;15.30;11.35;;;;;;;16.41;28.17;97950.31;4866022;29;20033;-80
2022/03/23 08:46:43;;;;;;;18.40;10.10;;;;;;;16.74;28.48;97949.03;4865612;29;20152;-80
2022/03/23 08:49:12;;;;;;;15.20;10.13;;;;;;;17.01;27.03;97950.09;4866387;29;20061;-79
2022/03/23 08:51:40;;;;;;;12.82;10.05;;;;;;;17.27;26.25;97939.78;4866313;29;20054;-79
2022/03/23 08:54:07;;;;;;;13.25;9.73;;;;;;;17.54;26.11;97939.16;4866256;29;20090;-79
2022/03/23 08:56:35;;;;;;;12.68;10.10;;;;;;;17.76;25.93;97951.28;4865288;29;20044;-80
2022/03/23 08:59:03;;;;;;;16.73;11.90;;;;;;;18.05;25.58;97942.31;4866371;29;20097;-78
2022/03/23 09:01:31;;;;;;;20.75;11.65;;;;;;;18.35;26.22;97942.03;4866063;29;20049;-80
2022/03/23 09:04:03;;;;;;;16.75;11.40;;;;;;;18.63;27.75;97951.63;4865385;29;20070;-79
2022/03/23 09:06:32;;;;;;;;;;;;;;;18.95;25.19;97944.81;4866059;29;20057;-79
2022/03/23 09:09:00;;;;;;;19.67;12.55;;;;;;;19.22;25.49;97943.00;4866135;29;19969;-79
2022/03/23 09:11:28;;;;;;;18.15;13.45;;;;;;;19.47;24.57;97948.47;4866303;29;20034;-79
2022/03/23 09:13:57;;;;;;;16.50;12.60;;;;;;;19.75;23.94;97942.97;4866269;29;20064;-79
2022/03/23 09:16:25;;;;;;;17.17;12.90;;;;;;;20.05;23.66;97942.47;4865459;29;20142;-79
2022/03/23 09:18:53;;;;;;;18.27;12.35;;;;;;;20.35;23.89;97941.91;4865841;29;20105;-80
2022/03/23 09:21:21;;;;;;;18.58;11.43;;;;;;;20.61;23.52;97940.19;4865543;29;20042;-80
2022/03/23 09:23:50;;;;;;;18.48;11.20;;;;;;;20.87;23.74;97940.00;4865824;29;20074;-79
2022/03/23 09:26:18;;;;;;;13.98;12.48;;;;;;;21.17;22.51;97939.41;4865739;29;20066;-80
2022/03/23 09:28:46;;;;;;;18.83;10.55;;;;;;;21.50;22.66;97940.97;4865917;29;20048;-78
2022/03/23 09:31:14;;;;;;;16.23;11.18;;;;;;;21.87;22.01;97938.34;4865963;29;20061;-80
2022/03/23 09:33:42;;;;;;;15.23;10.50;;;;;;;22.21;21.22;97935.09;4865428;29;20063;-79
2022/03/23 09:37:47;;;;;;;11.55;9.82;;;;;;;22.57;20.98;97938.72;4865588;29;20042;-79
2022/03/23 09:39:11;;;;;;;10.80;8.90;;;;;;;23.06;19.91;97935.19;4865312;29;20071;-80
2022/03/23 09:41:40;;;;;;;10.55;7.93;;;;;;;23.36;18.80;97927.09;4865570;29;20053;-80
2022/03/23 09:44:08;;;;;;;8.75;6.80;;;;;;;23.71;18.04;97932.41;4865729;29;20080;-79
2022/03/23 09:46:36;;;;;;;9.27;7.68;;;;;;;24.03;17.61;97926.69;4865058;29;20056;-80
2022/03/23 09:49:04;;;;;;;9.65;7.55;;;;;;;24.31;16.74;97925.91;4865633;29;20040;-81
2022/03/23 09:51:34;;;;;;;8.15;7.20;;;;;;;24.59;16.38;97917.13;4864927;29;20042;-79
2022/03/23 09:54:03;;;;;;;8.63;7.28;;;;;;;24.96;15.83;97924.69;4865162;29;20105;-80
2022/03/23 09:56:32;;;;;;;7.10;6.40;;;;;;;25.40;15.68;97922.19;4864641;29;20044;-79
2022/03/23 09:59:02;;;;;;;6.90;6.18;;;;;;;25.87;15.77;97913.75;4865768;29;20049;-80
2022/03/23 10:02:12;;;;;;;7.65;6.85;;;;;;;26.41;15.43;97909.56;4865300;29;20052;-80
2022/03/23 10:05:16;;;;;;;9.07;6.53;;;;;;;26.96;13.58;97921.91;4865753;29;20049;-80
2022/03/23 10:07:52;;;;;;;9.80;6.40;;;;;;;27.60;12.64;97915.66;4865153;29;20081;-80
2022/03/23 10:11:05;;;;;;;10.35;7.70;;;;;;;28.20;13.20;97918.09;4865460;29;20060;-79
2022/03/23 10:14:21;;;;;;;11.77;7.43;;;;;;;28.99;12.35;97908.03;4865583;29;20093;-80
2022/03/23 10:17:35;;;;;;;7.68;6.72;;;;;;;29.77;12.52;97908.47;4848261;29;20038;-81
2022/03/23 10:20:03;;;;;;;8.43;7.30;;;;;;;30.36;11.80;97906.88;4869192;29;20090;-80
2022/03/23 10:22:31;;;;;;;8.48;7.22;;;;;;;30.73;11.54;97908.25;4868929;29;20106;-80
2022/03/23 10:25:08;;;;;;;8.23;7.43;;;;;;;30.95;10.86;97904.34;4868996;29;20042;-80
2022/03/23 10:27:36;;;;;;;8.50;7.32;;;;;;;31.24;11.14;97907.06;4868849;29;20057;-80
2022/03/23 10:30:04;;;;;;;8.20;7.38;;;;;;;31.38;10.64;97904.50;4869077;29;20066;-80
2022/03/23 10:32:37;;;;;;;8.25;7.25;;;;;;;31.48;10.41;97903.63;4868878;29;20058;-80
2022/03/23 10:35:12;;;;;;;7.78;7.07;;;;;;;31.83;10.34;97891.59;4868933;29;20042;-80
2022/03/23 10:37:40;;;;;;;7.60;6.85;;;;;;;32.16;10.93;97902.56;4868636;29;20038;-80
2022/03/23 10:40:10;;;;;;;7.53;6.80;;;;;;;32.46;11.03;97897.84;4868922;29;20043;-80
2022/03/23 10:42:40;;;;;;;9.95;7.20;;;;;;;32.96;10.40;97896.25;4868872;29;20088;-80
2022/03/23 10:45:18;;;;;;;8.15;6.65;;;;;;;33.60;9.51;97901.13;4868991;29;20061;-81
2022/03/23 10:47:49;;;;;;;7.18;6.30;;;;;;;34.25;9.18;97894.66;4868630;29;20041;-80
2022/03/23 10:50:18;;;;;;;7.00;6.40;;;;;;;34.87;7.92;97900.25;4868660;29;20050;-80
2022/03/23 10:52:55;;;;;;;6.30;5.75;;;;;;;35.19;8.07;97887.56;4868330;29;20288;-80
2022/03/23 10:55:24;;;;;;;5.78;5.28;;;;;;;35.74;8.37;97896.44;4868531;29;20045;-80
2022/03/23 10:58:22;;;;;;;5.10;4.70;;;;;;;36.46;8.00;97878.81;4867603;29;20044;-80
2022/03/23 11:00:54;;;;;;;6.88;5.63;;;;;;;37.08;7.18;97875.72;4867984;29;20113;-80
2022/03/23 11:03:38;;;;;;;5.53;4.93;;;;;;;37.71;6.53;97877.91;4859964;29;20521;-82
2022/03/23 11:06:08;;;;;;;6.22;5.63;;;;;;;38.23;6.22;97874.09;4846136;29;20062;-82
2022/03/23 11:08:36;;;;;;;6.53;5.78;;;;;;;38.32;5.69;97864.69;4844850;29;20073;-83
2022/03/23 11:16:44;;;;;;;6.45;5.22;;;;;;;39.08;5.61;97862.75;4808102;29;20054;-83
2022/03/23 11:19:18;;;;;;;6.05;5.55;;;;;;;39.13;5.58;97864.44;4845996;29;20061;-83
2022/03/23 11:22:02;;;;;;;6.78;5.55;;;;;;;39.45;5.14;97851.88;4846279;29;20110;-84
2022/03/23 11:24:33;;;;;;;5.82;4.65;;;;;;;39.81;5.03;97855.72;4846386;29;20497;-82
2022/03/23 11:27:01;;;;;;;6.35;5.25;;;;;;;40.16;5.16;97858.72;4844788;29;20096;-83
2022/03/23 11:29:32;;;;;;;5.35;4.85;;;;;;;40.26;4.96;97853.94;4846892;29;20053;-83
2022/03/23 11:32:03;;;;;;;5.67;5.17;;;;;;;40.36;4.93;97853.47;4846328;29;20050;-83
2022/03/23 11:34:36;;;;;;;5.47;4.95;;;;;;;40.16;4.24;97847.81;4845695;29;20288;-83
2022/03/23 11:37:06;;;;;;;8.32;5.55;;;;;;;39.92;4.68;97848.66;4844556;29;20523;-83
2022/03/23 11:39:35;;;;;;;6.40;5.63;;;;;;;39.74;4.91;97839.91;4845190;29;20058;-83
2022/03/23 11:42:06;;;;;;;6.10;5.50;;;;;;;39.60;5.46;97836.75;4845225;29;20465;-82
2022/03/23 11:44:34;;;;;;;17.58;5.88;;;;;;;39.70;5.11;97839.00;4845089;29;20058;-83
2022/03/23 11:47:08;;;;;;;5.93;5.40;;;;;;;39.46;4.47;97834.34;4844461;29;20054;-83
2022/03/23 11:49:46;;;;;;;6.07;4.88;;;;;;;38.84;4.85;97830.72;4845286;29;20528;-82
2022/03/23 11:52:27;;;;;;;7.22;5.05;;;;;;;38.26;5.28;97827.88;4846466;29;20061;-83
2022/03/23 11:58:02;;;;;;;5.72;4.88;;;;;;;37.96;5.42;97818.16;4843107;29;20466;-83
2022/03/23 12:00:38;;;;;;;5.93;5.43;;;;;;;38.03;5.27;97823.91;4843858;29;20054;-83
2022/03/23 12:03:06;;;;;;;5.20;4.80;;;;;;;38.09;5.39;97815.22;4843666;29;20078;-83
2022/03/23 12:05:39;;;;;;;7.05;5.18;;;;;;;38.12;5.90;97811.03;4843997;29;20062;-83
2022/03/23 12:08:15;;;;;;;5.97;5.43;;;;;;;38.07;5.89;97809.31;4843038;29;20065;-83
2022/03/23 12:10:44;;;;;;;6.85;5.75;;;;;;;37.85;5.64;97804.94;4843983;29;20054;-83
2022/03/23 12:13:17;;;;;;;6.95;6.25;;;;;;;37.50;5.53;97804.31;4844243;29;20046;-83
2022/03/23 12:15:56;;;;;;;6.05;5.22;;;;;;;36.78;6.18;97806.03;4845755;29;20064;-82
2022/03/23 12:18:40;;;;;;;11.35;6.63;;;;;;;35.06;6.98;97801.66;4847746;29;20062;-81
2022/03/23 12:21:11;;;;;;;11.75;6.28;;;;;;;33.30;7.78;97797.00;4866733;29;20056;-80
2022/03/23 12:23:53;;;;;;;5.90;5.50;;;;;;;31.68;8.75;97798.19;4867061;29;20154;-80
2022/03/23 12:26:28;;;;;;;9.02;5.63;;;;;;;30.52;9.38;97782.94;4866808;29;20038;-80